Time;durP1;ratioP1;P1;durP2;ratioP2;P2;SDS_P1;SDS_P2;PMS_P1;PMS_P2;Temp;Humidity;BMP_temperature;BMP_pressure;BME280_temperature;BME280_humidity;BME280_pressure;Samples;Min_cycle;Max_cycle;Signal;HPM_P1;HPM_P2
2022/11/16 00:00:02;;;;;;;;;;;;;;;11.75;66.76;98961.75;4473434;32;35224;-64
2022/11/16 00:02:32;;;;;;;;;;;;;;;11.83;66.52;98952.03;4470909;32;32960;-63
2022/11/16 00:05:00;;;;;;;;;;;;;;;11.76;66.96;98947.38;4480185;32;34289;-64
2022/11/16 00:07:27;;;;;;;;;;;;;;;11.68;66.63;98950.75;4472293;32;35595;-64
2022/11/16 00:09:55;;;;;;;;;;;;;;;11.56;67.16;98946.56;4477879;32;34255;-64
2022/11/16 00:12:22;;;;;;;;;;;;;;;11.51;67.61;98940.75;4470104;32;32686;-64
2022/11/16 00:14:49;;;;;;;;;;;;;;;11.93;66.50;98937.81;4478520;32;34845;-64
2022/11/16 00:17:17;;;;;;;;;;;;;;;10.79;70.57;98932.03;4458858;32;34295;-63
2022/11/16 00:19:45;;;;;;;;;;;;;;;10.91;70.53;98935.41;4464442;32;32840;-63
2022/11/16 00:22:12;;;;;;;;;;;;;;;11.64;67.66;98928.75;4472802;32;34801;-65
2022/11/16 00:24:40;;;;;;;;;;;;;;;11.82;66.82;98928.91;4472542;32;33781;-64
2022/11/16 00:27:07;;;;;;;;;;;;;;;11.80;66.57;98924.66;4472180;32;34271;-64
2022/11/16 00:29:34;;;;;;;;;;;;;;;11.55;67.39;98923.41;4474277;32;34274;-65
2022/11/16 00:32:02;;;;;;;;;;;;;;;11.67;67.25;98919.59;4476531;32;34063;-65
2022/11/16 00:34:29;;;;;;;;;;;;;;;11.25;69.13;98924.38;4478279;32;34183;-65
2022/11/16 00:36:56;;;;;;;;;;;;;;;10.86;70.28;98919.78;4481318;32;32965;-65
2022/11/16 00:39:24;;;;;;;;;;;;;;;11.15;69.73;98917.16;4470898;32;32696;-64
2022/11/16 00:41:51;;;;;;;;;;;;;;;11.32;69.20;98918.31;4469100;32;33714;-65
2022/11/16 00:44:19;;;;;;;;;;;;;;;11.73;67.67;98910.97;4466831;32;34093;-64
2022/11/16 00:46:46;;;;;;;;;;;;;;;11.48;68.13;98907.03;4470403;32;34489;-65
2022/11/16 00:49:14;;;;;;;;;;;;;;;10.41;72.13;98906.78;4471658;32;34742;-65
2022/11/16 00:51:41;;;;;;;;;;;;;;;10.99;70.61;98899.94;4472184;32;33238;-64
2022/11/16 00:54:08;;;;;;;;;;;;;;;11.30;69.28;98898.88;4468368;32;33853;-65
2022/11/16 00:56:37;;;;;;;;;;;;;;;11.35;68.69;98891.22;4474643;32;34472;-65
2022/11/16 00:59:04;;;;;;;;;;;;;;;11.36;69.13;98886.72;4479016;32;32704;-65
2022/11/16 01:01:32;;;;;;;;;;;;;;;11.66;67.75;98885.75;4471230;32;32323;-66
2022/11/16 01:03:59;;;;;;;;;;;;;;;11.65;67.66;98881.34;4472455;32;31811;-65
2022/11/16 01:06:27;;;;;;;;;;;;;;;11.40;68.82;98878.28;4472427;32;34403;-66
2022/11/16 01:08:54;;;;;;;;;;;;;;;11.52;68.55;98880.78;4469164;32;33889;-66
2022/11/16 01:14:08;;;;;;;;;;;;;;;11.42;68.82;98878.97;4466233;32;33774;-65
2022/11/16 01:16:36;;;;;;;;;;;;;;;11.29;69.28;98873.03;4476424;32;35840;-65
2022/11/16 01:19:03;;;;;;;;;;;;;;;11.02;70.35;98872.91;4472772;32;33702;-66
2022/11/16 01:21:31;;;;;;;;;;;;;;;11.41;68.69;98861.19;4467831;32;32158;-65
2022/11/16 01:23:59;;;;;;;;;;;;;;;11.53;68.32;98861.06;4475886;32;32670;-65
2022/11/16 01:26:26;;;;;;;;;;;;;;;11.43;68.89;98847.69;4468958;32;35419;-64
2022/11/16 01:28:54;;;;;;;;;;;;;;;11.40;68.53;98848.81;4469532;32;32830;-65
2022/11/16 01:31:21;;;;;;;;;;;;;;;11.38;68.92;98849.94;4466794;32;32982;-65
2022/11/16 01:33:50;;;;;;;;;;;;;;;11.56;68.33;98845.56;4459608;32;34004;-65
2022/11/16 01:36:20;;;;;;;;;;;;;;;11.62;68.06;98844.09;4468058;32;34336;-64
2022/11/16 01:38:47;;;;;;;;;;;;;;;11.04;69.48;98833.41;4474809;32;33744;-64
2022/11/16 01:41:17;;;;;;;;;;;;;;;11.57;67.89;98836.50;4476011;32;32960;-65
2022/11/16 01:43:51;;;;;;;;;;;;;;;11.77;67.72;98837.31;4478022;32;33793;-66
2022/11/16 01:46:20;;;;;;;;;;;;;;;11.75;67.71;98830.41;4472442;32;34617;-65
2022/11/16 01:48:49;;;;;;;;;;;;;;;11.53;68.42;98827.06;4467396;32;34425;-65
2022/11/16 01:51:18;;;;;;;;;;;;;;;11.84;67.62;98817.00;4465822;32;33043;-64
2022/11/16 01:53:45;;;;;;;;;;;;;;;11.88;67.15;98814.91;4464202;32;32763;-66
2022/11/16 01:56:13;;;;;;;;;;;;;;;11.46;68.07;98819.72;4462561;32;34104;-65
2022/11/16 01:58:41;;;;;;;;;;;;;;;12.00;66.36;98810.19;4479405;32;33463;-66
2022/11/16 02:01:09;;;;;;;;;;;;;;;11.75;67.67;98812.50;4454931;32;33285;-68
2022/11/16 02:03:37;;;;;;;;;;;;;;;11.92;66.64;98807.41;4467452;32;34101;-66
2022/11/16 02:06:11;;;;;;;;;;;;;;;11.81;67.35;98806.56;4469166;32;34406;-65
2022/11/16 02:11:38;;;;;;;;;;;;;;;11.31;69.34;98801.44;4475311;32;33240;-65
2022/11/16 02:14:16;;;;;;;;;;;;;;;11.84;67.01;98800.03;4457063;32;34033;-65
2022/11/16 02:17:06;;;;;;;;;;;;;;;11.74;67.18;98797.41;4466086;32;34535;-65
2022/11/16 02:19:54;;;;;;;;;;;;;;;11.52;68.14;98795.88;4461667;32;32870;-65
2022/11/16 02:22:26;;;;;;;;;;;;;;;11.05;70.21;98789.59;4472839;32;33866;-64
2022/11/16 02:25:13;;;;;;;;;;;;;;;11.36;69.30;98785.78;4458487;32;35241;-67
2022/11/16 02:28:01;;;;;;;;;;;;;;;11.49;68.76;98784.59;4467856;32;34465;-67
2022/11/16 02:30:28;;;;;;;;;;;;;;;11.65;68.23;98784.84;4469350;32;34446;-65
2022/11/16 02:33:09;;;;;;;;;;;;;;;11.65;68.18;98776.81;4471360;32;33618;-65
2022/11/16 02:35:43;;;;;;;;;;;;;;;11.92;67.09;98768.03;4460300;32;33517;-65
2022/11/16 02:38:13;;;;;;;;;;;;;;;11.69;67.78;98770.19;4464838;32;31589;-64
2022/11/16 02:40:42;;;;;;;;;;;;;;;11.62;68.44;98771.75;4458579;32;33561;-67
2022/11/16 02:43:15;;;;;;;;;;;;;;;11.84;67.60;98766.06;4460685;32;32918;-65
2022/11/16 02:45:44;;;;;;;;;;;;;;;11.97;67.44;98760.38;4455940;32;35247;-64
2022/11/16 02:48:13;;;;;;;;;;;;;;;11.47;68.85;98757.97;4464437;32;34556;-66
2022/11/16 02:50:41;;;;;;;;;;;;;;;12.11;66.81;98751.84;4458861;32;33778;-64
2022/11/16 02:53:08;;;;;;;;;;;;;;;11.76;67.20;98760.56;4467754;32;33045;-66
2022/11/16 02:55:38;;;;;;;;;;;;;;;11.56;68.31;98756.28;4463009;32;33633;-67
2022/11/16 02:58:06;;;;;;;;;;;;;;;11.51;68.88;98755.84;4467966;32;34255;-65
2022/11/16 03:00:42;;;;;;;;;;;;;;;11.41;68.74;98748.66;4461537;32;33642;-67
2022/11/16 03:03:15;;;;;;;;;;;;;;;11.78;67.88;98747.00;4464172;32;34051;-65
2022/11/16 03:05:42;;;;;;;;;;;;;;;11.93;67.63;98750.94;4459164;32;34797;-65
2022/11/16 03:08:13;;;;;;;;;;;;;;;12.00;66.93;98745.81;4469773;32;33797;-65
2022/11/16 03:13:27;;;;;;;;;;;;;;;12.11;66.84;98738.44;4465115;32;33394;-65
2022/11/16 03:15:55;;;;;;;;;;;;;;;12.21;66.56;98740.22;4452988;32;32213;-66
2022/11/16 03:18:23;;;;;;;;;;;;;;;11.42;69.42;98741.47;4465714;32;34120;-65
2022/11/16 03:20:51;;;;;;;;;;;;;;;12.24;66.69;98734.56;4475836;32;34037;-66
2022/11/16 03:23:18;;;;;;;;;;;;;;;12.05;66.79;98730.16;4459794;32;33474;-65
2022/11/16 03:25:48;;;;;;;;;;;;;;;12.37;65.95;98721.63;4475486;32;34061;-65
2022/11/16 03:28:20;;;;;;;;;;;;;;;11.80;67.63;98726.28;4455985;32;32984;-65
2022/11/16 03:30:49;;;;;;;;;;;;;;;12.21;66.04;98724.12;4455488;32;34079;-64
2022/11/16 03:33:44;;;;;;;;;;;;;;;12.14;66.58;98715.00;4471493;32;32839;-63
2022/11/16 03:36:18;;;;;;;;;;;;;;;11.91;67.52;98715.41;4464627;32;35484;-64
2022/11/16 03:38:46;;;;;;;;;;;;;;;12.20;66.60;98711.69;4475908;32;35415;-66
2022/11/16 03:41:13;;;;;;;;;;;;;;;12.16;66.89;98711.16;4453790;32;34067;-65
2022/11/16 03:43:41;;;;;;;;;;;;;;;11.69;68.11;98705.03;4453396;32;34248;-65
2022/11/16 03:46:08;;;;;;;;;;;;;;;11.88;67.31;98705.81;4472881;32;32497;-64
2022/11/16 03:48:37;;;;;;;;;;;;;;;11.57;68.62;98705.19;4475976;32;34448;-64
2022/11/16 03:51:05;;;;;;;;;;;;;;;11.73;67.98;98698.37;4474375;32;35243;-63
2022/11/16 03:53:32;;;;;;;;;;;;;;;11.82;68.00;98692.97;4457000;32;34171;-65
2022/11/16 03:56:00;;;;;;;;;;;;;;;11.78;67.98;98688.91;4477936;32;34116;-64
2022/11/16 03:58:27;;;;;;;;;;;;;;;11.75;67.98;98683.84;4469093;32;33940;-64
2022/11/16 04:00:55;;;;;;;;;;;;;;;11.58;69.30;98695.31;4470626;32;34059;-65
2022/11/16 04:03:23;;;;;;;;;;;;;;;11.35;70.16;98695.66;4467265;32;34664;-65
2022/11/16 04:25:18;;;;;;;;;;;;;;;11.61;69.88;98673.56;4468205;32;33106;-65
2022/11/16 04:38:52;;;;;;;;;;;;;;;11.50;70.28;98660.37;4466672;32;33564;-65
2022/11/16 04:44:06;;;;;;;;;;;;;;;11.65;69.27;98648.16;4479891;32;34171;-64
2022/11/16 04:49:19;;;;;;;;;;;;;;;11.47;70.23;98656.16;4474770;32;33977;-64
2022/11/16 04:51:47;;;;;;;;;;;;;;;11.36;70.64;98651.84;4470893;32;35157;-65
2022/11/16 04:54:14;;;;;;;;;;;;;;;11.43;70.36;98644.06;4468244;32;35154;-64
2022/11/16 04:56:42;;;;;;;;;;;;;;;11.34;70.53;98648.44;4466871;32;32246;-64
2022/11/16 04:59:09;;;;;;;;;;;;;;;11.68;69.49;98644.34;4466271;32;33782;-66
2022/11/16 05:04:23;;;;;;;;;;;;;;;11.60;69.86;98645.09;4466416;32;32598;-66
2022/11/16 05:06:51;;;;;;;;;;;;;;;11.57;70.20;98648.91;4473094;32;33166;-66
2022/11/16 05:09:18;;;;;;;;;;;;;;;11.72;69.69;98640.38;4477112;32;35192;-66
2022/11/16 05:11:46;;;;;;;;;;;;;;;11.69;69.33;98640.69;4470661;32;34483;-66
2022/11/16 05:14:14;;;;;;;;;;;;;;;11.66;70.07;98639.16;4473451;32;34856;-66
2022/11/16 05:16:41;;;;;;;;;;;;;;;11.51;70.17;98641.47;4471524;32;34141;-66
2022/11/16 05:21:55;;;;;;;;;;;;;;;11.52;70.53;98643.13;4464154;32;32749;-65
2022/11/16 05:24:35;;;;;;;;;;;;;;;11.65;69.93;98635.63;4469515;32;33872;-65
2022/11/16 05:27:03;;;;;;;;;;;;;;;11.79;69.53;98625.41;4472026;32;34405;-64
2022/11/16 05:29:31;;;;;;;;;;;;;;;11.06;72.13;98625.28;4469173;32;34021;-65
2022/11/16 05:31:59;;;;;;;;;;;;;;;10.93;72.30;98630.94;4474109;32;32719;-68
2022/11/16 05:34:26;;;;;;;;;;;;;;;10.82;73.80;98631.06;4474672;32;33090;-66
2022/11/16 05:36:54;;;;;;;;;;;;;;;10.83;73.96;98625.59;4474658;32;32252;-65
2022/11/16 05:39:21;;;;;;;;;;;;;;;11.17;71.94;98625.94;4473944;32;34074;-64
2022/11/16 05:41:50;;;;;;;;;;;;;;;11.57;70.64;98621.28;4472582;32;35628;-66
2022/11/16 05:44:17;;;;;;;;;;;;;;;11.08;72.59;98609.91;4466924;32;35043;-66
2022/11/16 05:46:45;;;;;;;;;;;;;;;11.18;72.41;98610.72;4469438;32;33836;-67
2022/11/16 05:49:13;;;;;;;;;;;;;;;11.27;71.66;98601.81;4471979;32;34158;-65
2022/11/16 05:51:41;;;;;;;;;;;;;;;11.30;71.41;98600.66;4466571;32;34101;-66
2022/11/16 05:54:12;;;;;;;;;;;;;;;11.27;71.56;98598.25;4465833;32;34107;-66
2022/11/16 05:56:40;;;;;;;;;;;;;;;11.24;71.90;98594.06;4469998;32;32875;-66
2022/11/16 05:59:07;;;;;;;;;;;;;;;11.06;71.71;98609.19;4468561;32;32898;-65
2022/11/16 06:01:42;;;;;;;;;;;;;;;10.65;74.28;98606.72;4473060;32;34219;-67
2022/11/16 06:04:10;;;;;;;;;;;;;;;11.20;72.16;98608.72;4479913;32;33989;-68
2022/11/16 06:06:38;;;;;;;;;;;;;;;10.62;74.40;98606.19;4471213;32;32119;-66
2022/11/16 06:09:05;;;;;;;;;;;;;;;11.18;72.43;98606.19;4477145;32;33845;-66
2022/11/16 06:11:36;;;;;;;;;;;;;;;11.20;72.44;98598.00;4468160;32;34149;-66
2022/11/16 06:14:04;;;;;;;;;;;;;;;11.26;71.97;98602.78;4454990;32;32654;-68
2022/11/16 06:16:32;;;;;;;;;;;;;;;11.71;70.29;98599.31;4474134;32;33389;-67
2022/11/16 06:18:59;;;;;;;;;;;;;;;11.66;70.04;98598.94;4471648;32;34045;-68
2022/11/16 06:21:27;;;;;;;;;;;;;;;11.51;70.64;98595.06;4474773;32;34195;-68
2022/11/16 06:23:55;;;;;;;;;;;;;;;11.35;71.11;98593.03;4476583;32;34159;-66
2022/11/16 06:26:22;;;;;;;;;;;;;;;10.61;74.11;98601.81;4468333;32;32999;-66
2022/11/16 06:28:50;;;;;;;;;;;;;;;10.88;73.59;98599.25;4452288;32;34040;-65
2022/11/16 06:31:17;;;;;;;;;;;;;;;11.22;72.46;98600.56;4469259;32;32949;-66
2022/11/16 06:33:45;;;;;;;;;;;;;;;11.36;71.65;98602.75;4475128;32;34195;-65
2022/11/16 06:36:12;;;;;;;;;;;;;;;11.33;72.13;98593.19;4478785;32;33686;-66
2022/11/16 06:38:40;;;;;;;;;;;;;;;12.02;69.27;98591.00;4467935;32;34321;-66
2022/11/16 06:41:07;;;;;;;;;;;;;;;12.23;68.08;98591.53;4469394;32;34217;-66
2022/11/16 06:43:36;;;;;;;;;;;;;;;10.91;72.35;98592.75;4465891;32;33890;-66
2022/11/16 06:46:04;;;;;;;;;;;;;;;11.89;69.34;98591.34;4471392;32;34019;-66
2022/11/16 06:48:32;;;;;;;;;;;;;;;11.87;69.32;98585.28;4465080;32;34047;-67
2022/11/16 06:51:02;;;;;;;;;;;;;;;11.94;68.95;98580.16;4466144;32;34063;-65
2022/11/16 06:53:29;;;;;;;;;;;;;;;11.98;68.56;98578.88;4464648;32;34480;-66
2022/11/16 06:56:15;;;;;;;;;;;;;;;11.86;68.85;98572.91;4476858;32;33280;-66
2022/11/16 06:58:43;;;;;;;;;;;;;;;11.84;69.31;98575.72;4473322;32;34768;-65
2022/11/16 07:01:10;;;;;;;;;;;;;;;11.62;70.45;98573.41;4468847;32;34238;-66
2022/11/16 07:03:38;;;;;;;;;;;;;;;11.92;69.00;98568.78;4479129;32;35185;-66
2022/11/16 07:06:07;;;;;;;;;;;;;;;11.79;69.34;98569.94;4473727;32;34253;-65
2022/11/16 07:08:34;;;;;;;;;;;;;;;11.62;70.57;98565.38;4482129;32;34594;-67
2022/11/16 07:11:03;;;;;;;;;;;;;;;11.78;70.14;98572.75;4475469;32;35483;-65
2022/11/16 07:13:32;;;;;;;;;;;;;;;11.71;70.15;98566.31;4474668;32;34371;-66
2022/11/16 07:16:01;;;;;;;;;;;;;;;11.62;69.93;98568.06;4474050;32;33176;-66
2022/11/16 07:18:29;;;;;;;;;;;;;;;11.99;69.15;98561.78;4472358;32;32569;-67
2022/11/16 07:20:57;;;;;;;;;;;;;;;11.80;69.85;98560.06;4459529;32;33792;-66
2022/11/16 07:23:24;;;;;;;;;;;;;;;11.62;70.46;98562.69;4475966;32;34167;-66
2022/11/16 07:25:52;;;;;;;;;;;;;;;11.63;70.33;98562.56;4477682;32;34151;-66
2022/11/16 07:28:20;;;;;;;;;;;;;;;11.84;69.72;98556.94;4474794;32;34024;-66
2022/11/16 07:30:48;;;;;;;;;;;;;;;11.49;71.27;98552.31;4469578;32;34368;-67
2022/11/16 07:33:16;;;;;;;;;;;;;;;11.57;70.78;98562.31;4468646;32;35516;-63
2022/11/16 07:35:45;;;;;;;;;;;;;;;11.72;70.18;98554.59;4470224;32;33485;-65
2022/11/16 07:38:12;;;;;;;;;;;;;;;11.82;69.83;98545.50;4482038;32;33551;-65
2022/11/16 07:40:45;;;;;;;;;;;;;;;11.33;72.47;98550.31;4479143;32;33151;-65
2022/11/16 07:43:13;;;;;;;;;;;;;;;11.64;71.09;98550.84;4478653;32;32939;-64
2022/11/16 07:45:51;;;;;;;;;;;;;;;11.50;71.62;98550.53;4473455;32;33508;-65
2022/11/16 07:48:19;;;;;;;;;;;;;;;11.36;72.31;98550.03;4460984;32;32465;-72
2022/11/16 07:50:48;;;;;;;;;;;;;;;11.25;72.22;98542.16;4473026;32;33280;-67
2022/11/16 07:53:16;;;;;;;;;;;;;;;11.55;71.42;98540.19;4468794;32;34485;-66
2022/11/16 07:55:49;;;;;;;;;;;;;;;11.39;71.82;98536.31;4467810;32;33165;-66
2022/11/16 07:58:17;;;;;;;;;;;;;;;11.56;71.43;98542.72;4468343;32;33982;-65
2022/11/16 08:00:44;;;;;;;;;;;;;;;11.28;72.55;98525.81;4466336;32;34260;-67
2022/11/16 08:03:12;;;;;;;;;;;;;;;11.22;72.74;98525.56;4479209;32;33941;-67
2022/11/16 08:05:39;;;;;;;;;;;;;;;11.36;72.45;98533.97;4473839;32;33484;-67
2022/11/16 08:08:07;;;;;;;;;;;;;;;11.46;72.52;98533.03;4476809;32;33456;-66
2022/11/16 08:10:34;;;;;;;;;;;;;;;11.58;71.81;98523.78;4467703;32;34304;-67
2022/11/16 08:13:02;;;;;;;;;;;;;;;11.83;70.69;98527.59;4477964;32;34916;-66
2022/11/16 08:15:29;;;;;;;;;;;;;;;11.58;71.58;98534.50;4479221;32;33573;-66
2022/11/16 08:17:57;;;;;;;;;;;;;;;11.39;72.15;98532.78;4474712;32;34063;-67
2022/11/16 08:20:26;;;;;;;;;;;;;;;11.26;73.24;98526.94;4468201;32;35525;-66
2022/11/16 08:22:57;;;;;;;;;;;;;;;11.68;71.44;98535.28;4472117;32;34035;-67
2022/11/16 08:25:24;;;;;;;;;;;;;;;11.29;72.90;98540.88;4469105;32;34513;-65
2022/11/16 08:27:52;;;;;;;;;;;;;;;11.83;70.59;98533.78;4479486;32;33566;-67
2022/11/16 08:30:19;;;;;;;;;;;;;;;11.56;71.69;98523.13;4483748;32;35362;-66
2022/11/16 08:32:47;;;;;;;;;;;;;;;11.88;70.73;98523.50;4471041;32;33917;-67
2022/11/16 08:35:15;;;;;;;;;;;;;;;12.22;69.47;98524.63;4468431;32;33406;-66
2022/11/16 08:37:42;;;;;;;;;;;;;;;12.27;69.25;98520.47;4479316;32;32889;-66
2022/11/16 08:40:10;;;;;;;;;;;;;;;11.80;71.00;98519.84;4470123;32;33141;-66
2022/11/16 08:42:38;;;;;;;;;;;;;;;12.02;70.26;98522.09;4471700;32;34812;-68
2022/11/16 08:45:10;;;;;;;;;;;;;;;12.03;70.10;98515.72;4471686;32;34150;-66
2022/11/16 08:47:37;;;;;;;;;;;;;;;11.96;70.47;98513.84;4471090;32;33767;-67
2022/11/16 08:50:05;;;;;;;;;;;;;;;11.42;72.19;98514.56;4468942;32;32986;-68
2022/11/16 08:52:32;;;;;;;;;;;;;;;10.67;74.98;98527.16;4473596;32;33302;-67
2022/11/16 08:55:00;;;;;;;;;;;;;;;11.27;73.94;98518.78;4475960;32;33603;-67
2022/11/16 08:57:27;;;;;;;;;;;;;;;11.60;71.96;98517.31;4471394;32;34143;-66
2022/11/16 08:59:55;;;;;;;;;;;;;;;11.82;70.99;98510.66;4476732;32;34097;-66
2022/11/16 09:02:24;;;;;;;;;;;;;;;12.18;69.72;98509.84;4467022;32;34390;-66
2022/11/16 09:04:52;;;;;;;;;;;;;;;12.23;69.71;98505.69;4477347;32;33597;-66
2022/11/16 09:07:19;;;;;;;;;;;;;;;11.85;70.72;98509.56;4481725;32;34097;-68
2022/11/16 09:09:47;;;;;;;;;;;;;;;12.02;70.40;98505.19;4480662;32;34231;-69
2022/11/16 09:12:15;;;;;;;;;;;;;;;12.24;69.63;98509.22;4455512;32;33432;-66
2022/11/16 09:14:42;;;;;;;;;;;;;;;12.10;69.78;98500.75;4445676;32;896566;-67
2022/11/16 09:17:09;;;;;;;;;;;;;;;11.80;71.17;98493.88;4466939;32;32685;-68
2022/11/16 09:19:36;;;;;;;;;;;;;;;11.32;73.12;98496.88;4470328;32;35291;-67
2022/11/16 09:22:04;;;;;;;;;;;;;;;11.39;72.78;98489.94;4474136;32;34304;-65
2022/11/16 09:24:31;;;;;;;;;;;;;;;11.28;73.03;98487.47;4470091;32;34380;-67
2022/11/16 09:27:00;;;;;;;;;;;;;;;11.25;74.41;98495.81;4469884;32;34005;-65
2022/11/16 09:29:27;;;;;;;;;;;;;;;11.63;72.55;98492.03;4469701;32;36987;-65
2022/11/16 09:31:55;;;;;;;;;;;;;;;11.56;72.20;98496.34;4483933;32;34231;-68
2022/11/16 09:34:22;;;;;;;;;;;;;;;11.50;72.51;98495.09;4480706;32;33976;-68
2022/11/16 09:36:50;;;;;;;;;;;;;;;11.16;73.87;98498.38;4474959;32;34233;-68
2022/11/16 09:39:17;;;;;;;;;;;;;;;11.60;72.39;98505.75;4473845;32;34353;-67
2022/11/16 09:42:11;;;;;;;;;;;;;;;11.81;71.47;98494.72;4414744;32;34662;-66
2022/11/16 09:44:47;;;;;;;;;;;;;;;11.62;72.35;98491.22;4417851;32;34049;-66
2022/11/16 09:47:16;;;;;;;;;;;;;;;11.05;74.97;98479.84;4414992;32;34268;-65
2022/11/16 09:49:46;;;;;;;;;;;;;;;11.33;73.92;98475.31;4416013;32;34230;-65
2022/11/16 09:52:25;;;;;;;;;;;;;;;10.96;75.48;98470.84;4418362;32;33918;-66
2022/11/16 09:55:16;;;;;;;;;;;;;;;10.81;76.43;98471.47;4416899;32;33664;-66
2022/11/16 09:57:43;;;;;;;;;;;;;;;11.12;75.56;98464.00;4417955;32;35018;-66
2022/11/16 10:00:12;;;;;;;;;;;;;;;10.96;75.17;98462.81;4410115;32;32915;-65
2022/11/16 10:02:40;;;;;;;;;;;;;;;11.36;74.09;98453.59;4405447;32;34440;-64
2022/11/16 10:05:21;;;;;;;;;;;;;;;11.07;75.68;98456.41;4401148;32;31988;-65
2022/11/16 10:07:52;;;;;;;;;;;;;;;11.14;75.82;98454.00;4400203;32;34036;-66
2022/11/16 10:10:25;;;;;;;;;;;;;;;11.66;73.61;98448.84;4412856;32;32858;-65
2022/11/16 10:12:54;;;;;;;;;;;;;;;11.29;74.31;98452.47;4406524;32;33864;-65
2022/11/16 10:15:22;;;;;;;;;;;;;;;11.03;76.36;98452.34;4406834;32;33740;-66
2022/11/16 10:17:58;;;;;;;;;;;;;;;11.66;73.07;98446.19;4424090;32;32286;-64
2022/11/16 10:20:45;;;;;;;;;;;;;;;11.27;74.39;98440.22;4470505;32;34285;-65
2022/11/16 10:23:25;;;;;;;;;;;;;;;11.39;74.15;98436.34;4470417;32;34162;-66
2022/11/16 10:25:57;;;;;;;;;;;;;;;11.47;73.44;98435.59;4455541;32;32898;-65
2022/11/16 10:28:28;;;;;;;;;;;;;;;11.35;74.46;98434.97;4466885;32;33978;-65
2022/11/16 10:31:02;;;;;;;;;;;;;;;11.28;74.48;98429.38;4462025;32;34194;-65
2022/11/16 10:33:34;;;;;;;;;;;;;;;11.30;74.40;98427.41;4456806;32;34458;-65
2022/11/16 10:36:07;;;;;;;;;;;;;;;11.27;75.15;98416.13;4468840;32;33590;-65
2022/11/16 10:38:35;;;;;;;;;;;;;;;11.31;74.86;98410.31;4455227;32;34202;-66
2022/11/16 10:41:19;;;;;;;;;;;;;;;11.43;74.38;98408.28;4479284;32;33608;-66
2022/11/16 10:43:46;;;;;;;;;;;;;;;11.35;75.21;98410.88;4478545;32;35027;-64
2022/11/16 10:46:21;;;;;;;;;;;;;;;11.40;74.38;98400.53;4465736;32;33198;-67
2022/11/16 10:48:57;;;;;;;;;;;;;;;11.68;73.21;98387.88;4482298;32;35347;-65
2022/11/16 10:51:25;;;;;;;;;;;;;;;11.35;73.79;98390.28;4469956;32;32809;-67
2022/11/16 10:53:53;;;;;;;;;;;;;;;11.79;72.83;98379.59;4465999;32;33908;-67
2022/11/16 10:56:20;;;;;;;;;;;;;;;11.59;74.15;98389.66;4471154;32;31998;-68
2022/11/16 10:59:00;;;;;;;;;;;;;;;11.63;74.08;98374.97;4464937;32;33966;-67
2022/11/16 11:01:38;;;;;;;;;;;;;;;11.59;73.94;98378.94;4474107;32;34095;-67
2022/11/16 11:04:18;;;;;;;;;;;;;;;12.06;72.26;98372.44;4475847;32;35271;-67
2022/11/16 11:06:46;;;;;;;;;;;;;;;11.38;74.83;98379.25;4472919;32;33330;-67
2022/11/16 11:09:15;;;;;;;;;;;;;;;11.69;73.63;98368.16;4473706;32;34093;-68
2022/11/16 11:14:34;;;;;;;;;;;;;;;10.68;78.08;98368.28;4445828;32;33695;-67
2022/11/16 11:17:09;;;;;;;;;;;;;;;11.31;75.63;98369.31;4459399;32;32122;-66
2022/11/16 11:19:36;;;;;;;;;;;;;;;11.72;73.61;98365.16;4471589;32;32805;-67
2022/11/16 11:22:03;;;;;;;;;;;;;;;11.77;73.42;98362.84;4471273;32;34320;-67
2022/11/16 11:24:31;;;;;;;;;;;;;;;11.26;74.57;98359.03;4462017;32;34365;-68
2022/11/16 11:27:19;;;;;;;;;;;;;;;11.35;74.88;98347.41;4463567;32;33352;-67
2022/11/16 11:29:49;;;;;;;;;;;;;;;10.98;77.42;98352.91;4468230;32;32747;-69
2022/11/16 11:32:16;;;;;;;;;;;;;;;11.32;75.50;98347.72;4472803;32;33973;-67
2022/11/16 11:34:51;;;;;;;;;;;;;;;11.01;76.67;98343.72;4479175;32;33771;-66
2022/11/16 11:37:19;;;;;;;;;;;;;;;11.49;75.18;98339.81;4478125;32;33630;-66
2022/11/16 11:39:46;;;;;;;;;;;;;;;11.08;76.43;98326.06;4470559;32;35323;-66
2022/11/16 11:42:31;;;;;;;;;;;;;;;11.87;73.34;98328.75;4476465;31;33007;-66
2022/11/16 11:44:59;;;;;;;;;;;;;;;11.63;73.33;98326.72;4471874;32;32836;-66
2022/11/16 11:47:26;;;;;;;;;;;;;;;11.74;73.23;98322.94;4470955;32;33487;-67
2022/11/16 11:50:15;;;;;;;;;;;;;;;11.89;72.19;98326.75;4472472;32;33771;-66
2022/11/16 11:53:01;;;;;;;;;;;;;;;11.76;72.89;98326.31;4470349;32;34301;-68
2022/11/16 11:55:28;;;;;;;;;;;;;;;11.62;73.87;98333.09;4477762;32;35274;-68
2022/11/16 11:57:56;;;;;;;;;;;;;;;11.98;72.18;98327.66;4473602;32;33529;-69
2022/11/16 12:00:24;;;;;;;;;;;;;;;11.92;72.03;98328.28;4461955;32;34004;-70
2022/11/16 12:03:11;;;;;;;;;;;;;;;12.12;71.65;98320.88;4471169;32;34297;-71
2022/11/16 12:05:54;;;;;;;;;;;;;;;12.03;72.01;98316.44;4472536;32;34232;-68
2022/11/16 12:08:24;;;;;;;;;;;;;;;11.35;74.46;98312.59;4474149;32;33013;-72
2022/11/16 12:10:52;;;;;;;;;;;;;;;11.83;73.51;98311.28;4448918;32;33684;-69
2022/11/16 12:13:22;;;;;;;;;;;;;;;12.28;71.44;98309.37;4475808;32;33380;-73
2022/11/16 12:15:52;;;;;;;;;;;;;;;12.45;70.73;98321.03;4469776;32;33806;-71
2022/11/16 12:18:25;;;;;;;;;;;;;;;12.50;70.43;98316.84;4475798;32;33905;-71
2022/11/16 12:20:59;;;;;;;;;;;;;;;12.40;69.99;98318.84;4440853;32;33670;-72
2022/11/16 12:23:26;;;;;;;;;;;;;;;12.59;69.89;98318.56;4471224;32;34178;-72
2022/11/16 12:26:29;;;;;;;;;;;;;;;12.50;70.29;98314.19;4471800;32;34242;-67
2022/11/16 12:29:26;;;;;;;;;;;;;;;12.28;70.90;98307.53;4404612;32;33693;-70
2022/11/16 12:31:56;;;;;;;;;;;;;;;11.48;73.92;98311.34;4424893;32;33016;-68
2022/11/16 12:34:27;;;;;;;;;;;;;;;11.64;73.15;98306.12;4470279;32;35528;-68
2022/11/16 12:36:57;;;;;;;;;;;;;;;12.18;71.57;98303.31;4474814;32;34231;-71
2022/11/16 12:39:31;;;;;;;;;;;;;;;11.94;72.63;98298.63;4473622;32;35925;-69
2022/11/16 12:42:04;;;;;;;;;;;;;;;11.93;72.17;98299.63;4482759;32;32793;-69
2022/11/16 12:44:47;;;;;;;;;;;;;;;11.49;74.24;98299.63;4464015;32;35315;-68
2022/11/16 12:47:29;;;;;;;;;;;;;;;11.71;73.37;98293.75;4483072;32;34090;-68
2022/11/16 12:50:07;;;;;;;;;;;;;;;11.76;73.59;98298.66;4479126;32;34272;-68
2022/11/16 12:52:43;;;;;;;;;;;;;;;12.47;70.96;98297.56;4467770;32;33855;-67
2022/11/16 12:55:14;;;;;;;;;;;;;;;12.38;70.95;98291.31;4471285;32;35347;-70
2022/11/16 12:57:56;;;;;;;;;;;;;;;11.53;73.82;98285.78;4473210;32;34181;-71
2022/11/16 13:00:24;;;;;;;;;;;;;;;11.85;72.45;98292.41;4477005;32;34493;-70
2022/11/16 13:03:10;;;;;;;;;;;;;;;12.00;72.29;98282.75;4462700;32;33848;-70
2022/11/16 13:05:56;;;;;;;;;;;;;;;11.99;72.70;98288.28;4472615;32;34243;-69
2022/11/16 13:08:36;;;;;;;;;;;;;;;11.88;72.99;98292.91;4459318;32;33462;-71
2022/11/16 13:11:08;;;;;;;;;;;;;;;11.98;73.26;98295.50;4470387;32;31748;-70
2022/11/16 13:13:35;;;;;;;;;;;;;;;12.66;69.97;98291.91;4465451;32;36727;-69
2022/11/16 13:16:04;;;;;;;;;;;;;;;12.50;70.77;98300.75;4455625;32;34221;-69
2022/11/16 13:18:31;;;;;;;;;;;;;;;12.12;72.44;98291.38;4456997;32;34302;-69
2022/11/16 13:20:58;;;;;;;;;;;;;;;12.51;71.10;98291.69;4458504;32;33377;-70
2022/11/16 13:23:32;;;;;;;;;;;;;;;12.95;69.19;98293.34;4475473;32;34039;-69
2022/11/16 13:26:20;;;;;;;;;;;;;;;13.11;68.18;98284.47;4461778;32;33832;-69
2022/11/16 13:29:05;;;;;;;;;;;;;;;12.64;69.33;98280.50;4467893;32;34550;-68
2022/11/16 13:31:34;;;;;;;;;;;;;;;12.51;70.47;98280.13;4462495;32;32840;-69
2022/11/16 13:34:05;;;;;;;;;;;;;;;12.16;71.67;98286.50;4455086;32;33924;-68
2022/11/16 13:36:36;;;;;;;;;;;;;;;12.22;71.91;98286.72;4464495;32;32829;-69
2022/11/16 13:39:04;;;;;;;;;;;;;;;13.05;68.75;98286.78;4469883;32;33934;-68
2022/11/16 13:41:34;;;;;;;;;;;;;;;13.43;67.30;98279.13;4456652;32;34508;-69
2022/11/16 13:44:02;;;;;;;;;;;;;;;13.34;67.46;98272.06;4473888;32;35518;-70
2022/11/16 13:46:56;;;;;;;;;;;;;;;13.37;66.96;98282.50;4463452;32;32774;-70
2022/11/16 13:49:33;;;;;;;;;;;;;;;13.55;66.61;98276.09;4469190;32;35216;-69
2022/11/16 13:52:02;;;;;;;;;;;;;;;14.04;64.56;98274.16;4471226;32;33173;-69
2022/11/16 13:54:50;;;;;;;;;;;;;;;14.11;64.56;98275.16;4444144;32;32641;-69
2022/11/16 13:57:19;;;;;;;;;;;;;;;14.23;63.45;98270.25;4458661;32;34182;-71